Time;durP1;ratioP1;P1;durP2;ratioP2;P2;SDS_P1;SDS_P2;PMS_P1;PMS_P2;Temp;Humidity;BMP_temperature;BMP_pressure;BME280_temperature;BME280_humidity;BME280_pressure;Samples;Min_cycle;Max_cycle;Signal;HPM_P1;HPM_P2
2023/12/13 00:01:00;;;;;;;5.40;1.83;;;11.30;99.90;;;;;;10472106;28;20503;-61
2023/12/13 00:06:02;;;;;;;6.28;3.08;;;11.40;99.90;;;;;;10471092;28;20053;-60
2023/12/13 00:11:05;;;;;;;7.57;2.33;;;13.20;99.90;;;;;;10468548;28;20822;-62
2023/12/13 00:16:08;;;;;;;5.70;2.80;;;14.30;99.90;;;;;;10469823;28;20139;-60
2023/12/13 00:21:12;;;;;;;;;;;13.00;99.90;;;;;;10475100;28;20052;-59
2023/12/13 00:26:16;;;;;;;9.50;3.10;;;11.50;99.90;;;;;;10463318;28;19931;-59
2023/12/13 00:31:18;;;;;;;9.77;3.63;;;11.60;99.90;;;;;;10464806;28;20056;-60
2023/12/13 00:36:20;;;;;;;7.75;3.42;;;11.30;99.90;;;;;;10473789;28;20051;-61
2023/12/13 00:41:24;;;;;;;11.48;4.00;;;10.50;99.90;;;;;;10482951;28;20079;-61
2023/12/13 00:46:26;;;;;;;9.43;3.80;;;10.30;99.90;;;;;;10477003;28;20044;-60
2023/12/13 00:51:28;;;;;;;11.68;3.13;;;11.20;99.90;;;;;;10474394;28;20629;-61
2023/12/13 00:56:33;;;;;;;9.10;3.05;;;13.20;99.90;;;;;;10474461;28;20974;-61
2023/12/13 01:01:43;;;;;;;6.20;2.90;;;12.30;99.90;;;;;;10480222;28;20823;-59
2023/12/13 01:06:45;;;;;;;8.02;2.42;;;13.40;99.90;;;;;;10475895;28;20113;-61
2023/12/13 01:11:48;;;;;;;8.30;3.40;;;13.60;99.90;;;;;;10472303;28;20087;-60
2023/12/13 01:16:50;;;;;;;7.45;2.67;;;12.60;99.90;;;;;;10479027;28;20803;-60
2023/12/13 01:21:53;;;;;;;6.97;2.33;;;13.90;99.90;;;;;;10477452;28;20059;-61
2023/12/13 01:26:57;;;;;;;6.25;2.05;;;14.30;99.90;;;;;;10478805;28;20063;-61
2023/12/13 01:31:59;;;;;;;9.27;2.10;;;13.10;99.90;;;;;;10482485;28;20094;-61
2023/12/13 01:37:02;;;;;;;8.32;1.85;;;12.50;99.90;;;;;;10480004;28;20725;-62
2023/12/13 01:42:06;;;;;;;8.07;2.53;;;12.20;99.90;;;;;;10489550;28;20102;-60
2023/12/13 01:47:09;;;;;;;6.13;2.20;;;11.90;99.90;;;;;;10487754;28;20069;-62
2023/12/13 01:52:12;;;;;;;6.60;1.83;;;14.00;99.90;;;;;;10495802;28;20047;-60
2023/12/13 01:57:16;;;;;;;12.23;2.90;;;13.30;99.90;;;;;;10481726;28;20055;-61
2023/12/13 02:02:18;;;;;;;9.65;3.25;;;11.50;99.90;;;;;;10488521;28;20098;-59
2023/12/13 02:07:21;;;;;;;10.93;3.55;;;11.50;99.90;;;;;;10482289;28;20116;-60
2023/12/13 02:12:25;;;;;;;17.35;5.70;;;11.30;99.90;;;;;;10478046;28;20170;-60
2023/12/13 02:17:27;;;;;;;10.98;4.60;;;10.00;99.90;;;;;;10473004;28;20067;-61
2023/12/13 02:22:31;;;;;;;8.90;3.40;;;11.00;99.90;;;;;;10476893;28;20052;-61
2023/12/13 02:27:33;;;;;;;7.80;2.90;;;11.70;99.90;;;;;;10481549;28;20135;-60
2023/12/13 02:32:36;;;;;;;7.82;3.97;;;12.20;99.90;;;;;;10477135;28;20044;-59
2023/12/13 02:37:40;;;;;;;7.57;4.22;;;11.80;99.90;;;;;;10477581;28;20171;-59
2023/12/13 02:42:42;;;;;;;9.82;3.35;;;11.40;99.90;;;;;;10477677;28;20614;-60
2023/12/13 02:47:43;;;;;;;12.30;4.55;;;12.50;99.90;;;;;;10479298;28;20502;-61
2023/12/13 02:52:47;;;;;;;9.23;4.70;;;10.70;99.90;;;;;;10475711;28;20490;-61
2023/12/13 02:57:49;;;;;;;14.85;5.00;;;11.00;99.90;;;;;;10474179;28;20112;-60
2023/12/13 03:02:51;;;;;;;9.57;4.63;;;10.70;99.90;;;;;;10471095;28;20098;-61
2023/12/13 03:07:54;;;;;;;8.30;3.90;;;11.00;99.90;;;;;;10480635;28;20068;-60
2023/12/13 03:12:56;;;;;;;6.13;3.40;;;11.30;99.90;;;;;;10477708;28;20162;-60
2023/12/13 03:17:58;;;;;;;4.55;2.90;;;11.50;99.90;;;;;;10479836;28;20063;-61
2023/12/13 03:23:07;;;;;;;5.70;3.13;;;12.40;99.90;;;;;;10483293;28;20074;-60
2023/12/13 03:28:09;;;;;;;10.18;3.88;;;11.30;99.90;;;;;;10476049;28;20044;-64
2023/12/13 03:33:11;;;;;;;13.90;4.22;;;10.80;99.90;;;;;;10476997;28;20052;-60
2023/12/13 03:38:15;;;;;;;8.80;3.35;;;9.90;99.90;;;;;;10475325;28;20170;-60
2023/12/13 03:43:16;;;;;;;6.97;2.13;;;12.10;99.90;;;;;;10474630;28;20078;-58
2023/12/13 03:48:18;;;;;;;10.13;2.70;;;13.50;99.90;;;;;;10477353;28;20159;-60
2023/12/13 03:53:22;;;;;;;12.17;3.57;;;14.10;99.90;;;;;;10480919;28;20497;-61
2023/12/13 04:15:31;;;;;;;8.13;5.18;;;10.00;99.90;;;;;;10585521;27;20135;-60
2023/12/13 04:20:33;;;;;;;11.73;5.43;;;10.30;99.90;;;;;;10557165;28;20051;-60
2023/12/13 04:25:37;;;;;;;9.32;4.20;;;11.10;99.90;;;;;;10550825;28;20062;-60
2023/12/13 04:30:41;;;;;;;16.60;6.60;;;12.00;99.90;;;;;;10551501;28;20055;-60
2023/12/13 04:35:43;;;;;;;9.00;3.40;;;11.50;99.90;;;;;;10555951;28;20112;-59
2023/12/13 04:40:45;;;;;;;20.20;6.27;;;12.30;99.90;;;;;;10552033;27;20750;-61
2023/12/13 04:45:48;;;;;;;12.45;5.68;;;12.80;99.90;;;;;;10556768;28;20121;-60
2023/12/13 04:50:50;;;;;;;8.20;4.63;;;12.60;99.90;;;;;;10552522;28;20082;-60
2023/12/13 04:55:52;;;;;;;4.93;2.22;;;13.50;99.90;;;;;;10557564;28;20067;-60
2023/12/13 05:00:56;;;;;;;8.33;3.07;;;13.40;99.90;;;;;;10563007;28;20073;-62
2023/12/13 05:05:58;;;;;;;9.43;3.60;;;13.90;99.90;;;;;;10554143;28;20059;-60
2023/12/13 05:11:00;;;;;;;7.90;3.50;;;14.80;99.90;;;;;;10553620;28;20167;-60
2023/12/13 05:16:04;;;;;;;8.48;2.08;;;15.00;99.90;;;;;;10548965;28;20117;-60
2023/12/13 05:21:06;;;;;;;9.13;4.75;;;15.70;99.90;;;;;;10554958;28;20067;-60
2023/12/13 05:26:09;;;;;;;14.70;5.47;;;13.20;99.90;;;;;;10523877;28;20047;-60
2023/12/13 05:31:20;;;;;;;13.73;4.70;;;12.30;99.90;;;;;;10524539;28;20546;-60
2023/12/13 05:36:22;;;;;;;15.75;4.78;;;13.30;99.90;;;;;;10527450;28;20056;-61
2023/12/13 05:41:24;;;;;;;13.40;3.37;;;13.70;99.90;;;;;;10510559;28;20079;-58
2023/12/13 05:46:33;;;;;;;9.97;3.40;;;14.50;99.90;;;;;;10523824;28;20043;-60
2023/12/13 05:51:35;;;;;;;9.32;3.70;;;15.50;99.90;;;;;;10528036;28;20502;-67
2023/12/13 05:56:37;;;;;;;3.87;2.07;;;14.80;99.90;;;;;;10530313;28;20078;-61
2023/12/13 06:01:41;;;;;;;21.57;5.63;;;14.70;99.90;;;;;;10512404;28;20035;-58
2023/12/13 06:06:44;;;;;;;17.58;5.40;;;14.50;99.90;;;;;;10522075;28;20208;-57
2023/12/13 06:11:46;;;;;;;15.52;5.45;;;14.00;99.90;;;;;;10526479;28;20055;-58
2023/12/13 06:16:49;;;;;;;13.83;5.37;;;13.10;99.90;;;;;;10524841;28;20052;-59
2023/12/13 06:21:51;;;;;;;17.33;7.38;;;12.60;99.90;;;;;;10514969;28;20050;-60
2023/12/13 06:26:54;;;;;;;19.77;7.53;;;11.70;99.90;;;;;;10520021;28;20611;-59
2023/12/13 06:31:57;;;;;;;15.18;9.95;;;11.20;99.90;;;;;;10521679;28;20101;-59
2023/12/13 06:37:00;;;;;;;18.50;7.45;;;10.60;99.90;;;;;;10505598;28;20048;-59
2023/12/13 06:42:02;;;;;;;12.40;5.53;;;11.80;99.90;;;;;;10514086;28;20145;-60
2023/12/13 06:47:06;;;;;;;19.10;6.05;;;13.10;99.90;;;;;;10510730;28;20083;-59
2023/12/13 06:52:08;;;;;;;16.73;6.43;;;13.00;99.90;;;;;;10501225;28;20047;-58
2023/12/13 06:57:10;;;;;;;13.70;5.37;;;13.30;99.90;;;;;;10507215;28;20075;-61
2023/12/13 07:02:13;;;;;;;15.52;5.03;;;14.60;99.90;;;;;;10506547;28;20085;-61
2023/12/13 07:07:15;;;;;;;14.63;5.88;;;14.40;99.90;;;;;;10501796;28;20395;-60
2023/12/13 07:12:17;;;;;;;13.40;3.47;;;14.30;99.90;;;;;;10508652;28;20941;-61
2023/12/13 07:17:21;;;;;;;13.07;4.00;;;15.90;99.90;;;;;;10509174;28;20090;-60
2023/12/13 07:22:23;;;;;;;8.10;3.35;;;16.70;98.40;;;;;;10507355;28;20181;-59
2023/12/13 07:27:25;;;;;;;6.50;3.10;;;15.40;99.90;;;;;;10501593;28;20052;-60
2023/12/13 07:32:28;;;;;;;9.87;3.00;;;16.20;99.90;;;;;;10507336;28;20521;-61
2023/12/13 07:37:30;;;;;;;9.93;2.58;;;16.70;99.30;;;;;;10504417;28;20051;-61
2023/12/13 07:42:32;;;;;;;11.70;3.67;;;16.80;99.00;;;;;;10505767;28;20842;-60
2023/12/13 07:47:36;;;;;;;2.90;1.60;;;17.40;96.00;;;;;;10509493;28;20838;-61
2023/12/13 07:52:38;;;;;;;9.48;3.05;;;17.60;95.00;;;;;;10506401;28;20044;-60
2023/12/13 07:57:40;;;;;;;8.15;4.97;;;17.20;95.40;;;;;;10500061;28;20048;-58
2023/12/13 08:02:43;;;;;;;6.40;2.87;;;16.80;95.80;;;;;;10504190;28;20055;-60
2023/12/13 08:07:45;;;;;;;4.35;2.20;;;17.60;94.50;;;;;;10511522;28;20108;-66
2023/12/13 08:12:47;;;;;;;5.18;2.00;;;17.80;93.70;;;;;;10508111;28;20048;-62
2023/12/13 08:17:50;;;;;;;5.05;2.05;;;17.50;93.90;;;;;;10501142;28;20113;-60
2023/12/13 08:22:52;;;;;;;4.97;1.77;;;17.70;93.40;;;;;;10512746;28;20067;-61
2023/12/13 08:27:55;;;;;;;10.80;4.13;;;17.70;93.50;;;;;;10507014;28;20121;-58
2023/12/13 08:32:58;;;;;;;12.70;4.13;;;17.70;93.40;;;;;;10507407;28;20056;-59
2023/12/13 08:38:00;;;;;;;10.15;4.30;;;17.30;94.30;;;;;;10500841;28;20090;-61
2023/12/13 08:43:02;;;;;;;10.80;2.80;;;16.50;96.40;;;;;;10503036;28;20708;-61
2023/12/13 08:48:06;;;;;;;4.00;2.38;;;17.10;95.50;;;;;;10505012;28;20101;-60
2023/12/13 08:53:07;;;;;;;5.25;2.20;;;17.40;94.60;;;;;;10510483;28;20862;-60
2023/12/13 08:58:11;;;;;;;8.27;2.45;;;17.40;94.50;;;;;;10517883;28;20051;-60
2023/12/13 09:03:15;;;;;;;10.68;3.88;;;17.30;95.00;;;;;;10521182;28;20040;-60
2023/12/13 09:08:17;;;;;;;10.15;4.20;;;17.40;94.50;;;;;;10512730;28;20048;-62
2023/12/13 09:13:19;;;;;;;7.63;2.53;;;17.00;95.60;;;;;;10514738;28;20047;-60
2023/12/13 09:18:22;;;;;;;5.80;2.07;;;17.50;94.30;;;;;;10510910;28;20063;-60
2023/12/13 09:23:25;;;;;;;7.72;3.13;;;17.60;93.70;;;;;;10512967;28;20497;-60
2023/12/13 09:28:29;;;;;;;5.63;1.98;;;17.70;93.40;;;;;;10517664;28;20080;-61
2023/12/13 09:33:32;;;;;;;10.00;4.47;;;17.70;93.30;;;;;;10515365;28;20044;-61
2023/12/13 09:38:34;;;;;;;6.57;2.47;;;17.60;93.30;;;;;;10516973;28;20529;-59
2023/12/13 09:43:41;;;;;;;6.10;2.03;;;17.60;93.40;;;;;;10509505;28;20257;-59
2023/12/13 09:48:46;;;;;;;10.07;2.85;;;17.80;93.20;;;;;;10517241;28;20213;-58
2023/12/13 09:53:49;;;;;;;10.70;6.95;;;17.80;93.10;;;;;;10503908;28;20055;-60
2023/12/13 09:58:51;;;;;;;8.63;3.05;;;17.60;92.30;;;;;;10513832;28;20804;-60
2023/12/13 10:03:55;;;;;;;12.70;3.65;;;17.70;93.40;;;;;;10511799;28;23035;-58
2023/12/13 10:08:57;;;;;;;9.88;4.32;;;17.80;93.10;;;;;;10507771;28;20545;-59
2023/12/13 10:13:59;;;;;;;6.15;2.95;;;17.80;92.90;;;;;;10514165;28;20052;-59
2023/12/13 10:19:06;;;;;;;10.57;3.28;;;17.90;92.70;;;;;;10510464;28;20087;-57
2023/12/13 10:24:09;;;;;;;7.38;2.10;;;18.10;92.30;;;;;;10508101;28;20068;-58
2023/12/13 10:29:10;;;;;;;;;;;18.30;92.00;;;;;;10520132;28;20056;-59
2023/12/13 10:34:14;;;;;;;12.32;2.78;;;18.40;91.80;;;;;;10507610;28;19998;-58
2023/12/13 10:39:17;;;;;;;6.60;2.42;;;18.40;91.70;;;;;;10505295;28;20130;-59
2023/12/13 10:44:22;;;;;;;5.80;2.60;;;18.50;91.60;;;;;;10510125;28;20162;-61
2023/12/13 10:49:26;;;;;;;11.15;3.03;;;18.40;91.80;;;;;;10500331;28;20060;-60
2023/12/13 10:54:29;;;;;;;12.35;4.47;;;18.60;91.50;;;;;;10511226;28;20046;-61
2023/12/13 10:59:33;;;;;;;12.88;4.97;;;18.60;91.60;;;;;;10518153;28;20052;-62
2023/12/13 11:04:37;;;;;;;14.40;5.07;;;18.50;91.90;;;;;;10511595;28;20058;-58
2023/12/13 11:09:50;;;;;;;11.35;4.80;;;16.80;95.80;;;;;;10515241;28;20168;-59
2023/12/13 11:14:53;;;;;;;11.68;6.25;;;16.90;96.90;;;;;;10512258;28;20060;-60
2023/12/13 11:19:56;;;;;;;15.57;6.32;;;17.70;93.50;;;;;;10513397;28;20067;-60
2023/12/13 11:25:02;;;;;;;9.40;5.70;;;17.40;95.30;;;;;;10507745;28;20093;-61
2023/12/13 11:30:16;;;;;;;21.33;9.88;;;18.10;93.90;;;;;;10515959;28;20115;-60
2023/12/13 11:35:20;;;;;;;16.77;8.95;;;14.90;97.60;;;;;;10510770;28;20036;-60
2023/12/13 11:40:23;;;;;;;21.05;9.98;;;15.50;99.90;;;;;;10511349;28;20043;-60
2023/12/13 11:45:25;;;;;;;9.80;4.45;;;14.30;99.90;;;;;;10515429;28;20063;-59
2023/12/13 11:50:28;;;;;;;12.23;8.10;;;14.70;99.90;;;;;;10510116;28;20056;-58
2023/12/13 11:55:30;;;;;;;18.27;9.50;;;15.70;99.70;;;;;;10501953;28;20047;-61
2023/12/13 12:00:33;;;;;;;18.57;10.70;;;15.70;98.20;;;;;;10506428;28;20044;-58
2023/12/13 12:05:36;;;;;;;12.68;8.82;;;13.80;99.90;;;;;;10506095;28;20040;-61
2023/12/13 12:10:38;;;;;;;13.20;6.90;;;15.80;99.90;;;;;;10496729;28;20054;-60
2023/12/13 12:15:43;;;;;;;15.68;6.13;;;16.10;99.90;;;;;;10503343;28;23057;-60
2023/12/13 12:20:47;;;;;;;8.15;4.43;;;16.40;99.90;;;;;;10502692;28;20063;-60
2023/12/13 12:25:53;;;;;;;6.22;3.60;;;17.20;99.00;;;;;;10511621;28;20040;-59
2023/12/13 12:30:57;;;;;;;8.38;6.07;;;17.90;96.70;;;;;;10510350;28;20074;-60
2023/12/13 12:36:01;;;;;;;7.63;3.08;;;18.40;94.80;;;;;;10509342;28;20080;-61
2023/12/13 12:41:03;;;;;;;6.75;3.30;;;18.50;94.30;;;;;;10511855;28;20062;-60
2023/12/13 12:46:06;;;;;;;7.93;3.38;;;18.70;93.70;;;;;;10517803;28;20051;-60
2023/12/13 12:51:10;;;;;;;9.55;4.65;;;18.70;93.40;;;;;;10520685;28;20047;-60
2023/12/13 12:56:13;;;;;;;9.30;4.65;;;18.80;93.20;;;;;;10522702;28;20052;-62
2023/12/13 13:01:16;;;;;;;7.15;3.50;;;18.80;93.10;;;;;;10519798;28;20109;-61
2023/12/13 13:06:19;;;;;;;11.02;3.40;;;18.90;92.90;;;;;;10517881;28;20063;-59
2023/12/13 13:11:22;;;;;;;8.10;3.75;;;18.90;92.90;;;;;;10513352;28;20086;-61
2023/12/13 13:16:24;;;;;;;7.40;3.33;;;19.00;92.60;;;;;;10512884;28;20777;-60
2023/12/13 13:21:28;;;;;;;8.50;4.75;;;19.00;92.40;;;;;;10509875;28;20070;-60
2023/12/13 13:26:30;;;;;;;11.30;4.05;;;19.00;92.30;;;;;;10508063;28;20052;-59
2023/12/13 13:31:32;;;;;;;12.25;6.95;;;19.00;92.20;;;;;;10519441;28;20185;-59
2023/12/13 13:36:36;;;;;;;13.27;5.70;;;19.00;92.00;;;;;;10514678;28;20383;-59
2023/12/13 13:41:38;;;;;;;7.88;3.53;;;19.00;91.90;;;;;;10519662;28;20079;-59
2023/12/13 13:46:44;;;;;;;8.32;5.03;;;19.00;91.80;;;;;;10514132;28;20429;-59
2023/12/13 13:51:47;;;;;;;9.32;4.50;;;19.00;91.80;;;;;;10517169;28;20206;-58
2023/12/13 13:56:49;;;;;;;10.63;5.63;;;19.10;91.60;;;;;;10522072;28;20051;-59
2023/12/13 14:01:51;;;;;;;8.52;5.70;;;19.00;91.50;;;;;;10518035;28;20213;-59
2023/12/13 14:06:54;;;;;;;10.35;5.60;;;18.90;92.00;;;;;;10514729;28;20036;-59
2023/12/13 14:11:56;;;;;;;6.55;3.40;;;19.00;91.90;;;;;;10513711;28;20094;-60
2023/12/13 14:16:59;;;;;;;10.13;4.15;;;19.00;91.90;;;;;;10514418;28;20040;-60
2023/12/13 14:22:02;;;;;;;9.07;4.60;;;19.00;91.70;;;;;;10512161;28;20220;-60
2023/12/13 14:27:06;;;;;;;8.88;4.85;;;19.00;91.80;;;;;;10520236;28;20666;-60
2023/12/13 14:32:08;;;;;;;8.40;3.88;;;19.00;91.80;;;;;;10517253;28;20705;-60
2023/12/13 14:37:11;;;;;;;5.78;3.53;;;19.10;91.70;;;;;;10520044;28;20047;-57
2023/12/13 14:42:13;;;;;;;7.18;3.47;;;19.10;91.60;;;;;;10506176;28;20127;-55
2023/12/13 14:47:16;;;;;;;5.32;2.90;;;19.10;91.60;;;;;;10511463;28;20541;-56
2023/12/13 14:52:19;;;;;;;19.52;4.85;;;18.80;92.30;;;;;;10511139;28;20056;-57
2023/12/13 14:57:21;;;;;;;10.40;4.70;;;19.00;91.90;;;;;;10506454;28;20043;-55
2023/12/13 15:02:23;;;;;;;6.80;3.53;;;19.10;91.90;;;;;;10507942;28;20054;-58
2023/12/13 15:07:26;;;;;;;11.10;4.28;;;19.00;92.00;;;;;;10505571;28;20147;-54
2023/12/13 15:12:28;;;;;;;9.05;4.20;;;19.10;91.90;;;;;;10513926;28;20165;-59
2023/12/13 15:17:30;;;;;;;7.47;5.28;;;19.00;92.10;;;;;;10515509;28;20158;-56
2023/12/13 15:22:34;;;;;;;7.40;4.50;;;19.00;91.40;;;;;;10503777;28;20047;-54
2023/12/13 15:27:36;;;;;;;10.80;6.35;;;19.00;92.20;;;;;;10510409;28;20047;-56
2023/12/13 15:32:40;;;;;;;10.50;6.35;;;19.10;91.90;;;;;;10505572;28;20047;-55
2023/12/13 15:37:43;;;;;;;11.90;6.03;;;19.20;91.70;;;;;;10508352;28;20529;-57
2023/12/13 15:42:46;;;;;;;6.78;4.80;;;19.20;91.60;;;;;;10507567;28;20044;-54
2023/12/13 15:47:48;;;;;;;8.55;6.35;;;19.20;91.70;;;;;;10512323;28;20055;-56
2023/12/13 15:52:51;;;;;;;11.23;6.18;;;19.20;91.80;;;;;;10512063;28;20090;-54
2023/12/13 15:57:53;;;;;;;11.40;4.90;;;19.20;91.80;;;;;;10514025;28;20055;-55
2023/12/13 16:02:55;;;;;;;9.52;5.60;;;19.20;91.80;;;;;;10509862;28;20052;-56
2023/12/13 16:07:59;;;;;;;11.50;7.47;;;19.10;92.20;;;;;;10508177;28;20148;-58
2023/12/13 16:13:01;;;;;;;10.32;5.45;;;19.10;92.50;;;;;;10515038;28;20052;-56
2023/12/13 16:18:03;;;;;;;15.80;7.35;;;19.10;92.10;;;;;;10510962;28;20155;-55
2023/12/13 16:23:07;;;;;;;20.65;9.85;;;19.10;92.20;;;;;;10515757;28;20044;-56
2023/12/13 16:28:09;;;;;;;8.30;5.30;;;18.90;91.90;;;;;;10518805;28;20142;-56
2023/12/13 16:33:12;;;;;;;10.02;5.45;;;19.10;92.30;;;;;;10510383;28;20556;-55
2023/12/13 16:38:17;;;;;;;9.88;6.82;;;19.00;92.50;;;;;;10511343;28;20104;-55
2023/12/13 16:43:20;;;;;;;11.50;4.63;;;18.90;92.50;;;;;;10514442;28;20058;-59
2023/12/13 16:48:22;;;;;;;10.38;6.82;;;19.00;92.40;;;;;;10513280;28;20113;-56
2023/12/13 16:53:25;;;;;;;8.23;3.85;;;19.10;92.30;;;;;;10513211;28;20071;-54
2023/12/13 16:58:27;;;;;;;8.80;5.18;;;19.10;92.40;;;;;;10507505;28;20075;-56
2023/12/13 17:03:29;;;;;;;11.05;5.30;;;19.10;92.30;;;;;;10513039;28;20884;-57
2023/12/13 17:08:32;;;;;;;17.52;9.68;;;19.10;92.30;;;;;;10514578;28;20056;-57
2023/12/13 17:13:34;;;;;;;14.30;8.88;;;19.00;92.10;;;;;;10512332;28;20519;-58
2023/12/13 17:18:36;;;;;;;19.73;9.88;;;19.00;92.20;;;;;;10514572;28;20047;-57
2023/12/13 17:23:39;;;;;;;14.38;8.23;;;19.00;92.10;;;;;;10524851;28;20943;-55
2023/12/13 17:28:41;;;;;;;11.98;6.20;;;19.00;92.50;;;;;;10520197;28;20097;-55
2023/12/13 17:33:43;;;;;;;12.15;7.57;;;19.00;92.40;;;;;;10517140;28;20496;-57
2023/12/13 17:38:47;;;;;;;10.25;6.47;;;19.00;92.50;;;;;;10522608;28;20055;-57
2023/12/13 17:43:49;;;;;;;15.63;8.13;;;19.10;92.30;;;;;;10515531;28;20130;-57
2023/12/13 17:48:51;;;;;;;11.88;7.28;;;19.10;92.20;;;;;;10518824;28;20066;-56
2023/12/13 17:53:55;;;;;;;13.88;7.13;;;19.10;92.30;;;;;;10516578;28;20698;-56
2023/12/13 17:58:57;;;;;;;14.73;6.88;;;19.00;92.40;;;;;;10509476;28;20048;-56
2023/12/13 18:03:59;;;;;;;15.00;6.85;;;19.00;92.40;;;;;;10506530;28;20047;-54
2023/12/13 18:09:02;;;;;;;14.13;7.50;;;19.00;92.30;;;;;;10515732;28;20112;-56
2023/12/13 18:14:04;;;;;;;19.50;10.15;;;18.30;93.30;;;;;;10519414;28;20056;-56
2023/12/13 18:19:08;;;;;;;21.45;12.60;;;17.90;94.20;;;;;;10516939;28;20055;-56
2023/12/13 18:24:11;;;;;;;25.30;12.73;;;17.80;94.30;;;;;;10518140;28;20062;-55
2023/12/13 18:29:13;;;;;;;26.13;15.82;;;17.40;94.90;;;;;;10518769;28;20113;-56
2023/12/13 18:34:15;;;;;;;30.17;17.08;;;17.10;95.00;;;;;;10514244;28;20489;-57
2023/12/13 18:39:20;;;;;;;30.73;17.13;;;16.90;96.10;;;;;;10518023;28;20055;-56
2023/12/13 18:44:22;;;;;;;24.70;12.23;;;16.90;96.30;;;;;;10517368;28;20046;-56
2023/12/13 18:49:28;;;;;;;30.60;16.98;;;16.60;97.80;;;;;;10518426;28;20047;-54
2023/12/13 18:54:31;;;;;;;37.83;19.55;;;16.40;96.90;;;;;;10518642;28;20047;-55
2023/12/13 18:59:34;;;;;;;19.95;10.82;;;16.10;96.80;;;;;;10512035;28;20062;-55
2023/12/13 19:04:35;;;;;;;;;;;16.60;99.10;;;;;;10518409;28;20051;-55
2023/12/13 19:09:39;;;;;;;19.33;10.70;;;18.00;96.00;;;;;;10518351;28;20022;-55
2023/12/13 19:14:41;;;;;;;18.90;10.02;;;17.90;95.30;;;;;;10513519;28;20368;-55
2023/12/13 19:19:43;;;;;;;12.70;6.75;;;18.50;94.60;;;;;;10515864;28;20883;-55
2023/12/13 19:24:46;;;;;;;21.15;10.10;;;18.70;93.80;;;;;;10512633;28;20047;-56
2023/12/13 19:29:51;;;;;;;18.17;9.82;;;18.70;93.70;;;;;;10517201;28;20106;-52
2023/12/13 19:34:55;;;;;;;13.13;6.68;;;18.70;93.00;;;;;;10517204;28;20054;-55
2023/12/13 19:40:02;;;;;;;20.90;11.52;;;18.50;94.00;;;;;;10524101;28;20059;-54
2023/12/13 19:45:09;;;;;;;15.68;8.15;;;18.50;92.40;;;;;;10515597;28;20051;-55
2023/12/13 19:50:13;;;;;;;18.45;8.75;;;18.50;94.10;;;;;;10513412;28;20059;-55
2023/12/13 19:55:17;;;;;;;16.30;7.35;;;18.60;94.10;;;;;;10511036;28;20736;-57
2023/12/13 20:00:21;;;;;;;17.20;9.02;;;18.80;93.60;;;;;;10507424;28;20051;-53
2023/12/13 20:05:23;;;;;;;17.15;8.82;;;18.60;93.70;;;;;;10506909;28;20052;-54
2023/12/13 20:10:26;;;;;;;23.00;9.82;;;18.50;94.00;;;;;;10506939;28;20055;-55
2023/12/13 20:15:28;;;;;;;15.00;6.82;;;18.90;93.30;;;;;;10510384;28;20605;-53
2023/12/13 20:20:30;;;;;;;12.30;7.25;;;18.90;93.00;;;;;;10495825;28;20117;-55
2023/12/13 20:25:34;;;;;;;19.73;11.18;;;18.80;93.30;;;;;;10500843;28;20043;-54
2023/12/13 20:30:36;;;;;;;31.90;15.43;;;18.50;93.70;;;;;;10508016;28;20059;-55
2023/12/13 20:35:41;;;;;;;23.58;10.48;;;18.10;92.80;;;;;;10509745;28;20047;-55
2023/12/13 20:40:44;;;;;;;23.35;10.18;;;18.60;91.80;;;;;;10515590;28;20052;-55
2023/12/13 20:45:46;;;;;;;18.13;6.95;;;18.60;93.40;;;;;;10506377;28;20161;-56
2023/12/13 20:50:48;;;;;;;22.83;9.05;;;18.70;93.30;;;;;;10514263;28;20082;-55
2023/12/13 20:55:52;;;;;;;12.32;4.78;;;18.80;93.00;;;;;;10515527;28;20089;-53
2023/12/13 21:00:54;;;;;;;15.55;7.43;;;18.80;92.80;;;;;;10515887;28;20048;-56
2023/12/13 21:05:56;;;;;;;14.80;6.63;;;18.10;94.10;;;;;;10519114;28;20086;-57
2023/12/13 21:10:59;;;;;;;12.98;6.38;;;18.20;93.90;;;;;;10517588;28;20108;-57
2023/12/13 21:16:01;;;;;;;13.38;6.72;;;18.40;93.40;;;;;;10513776;28;20068;-55
2023/12/13 21:21:03;;;;;;;13.70;5.72;;;18.40;93.50;;;;;;10517505;28;20170;-56
2023/12/13 21:26:07;;;;;;;9.68;4.60;;;18.30;93.70;;;;;;10518368;28;20043;-56
2023/12/13 21:31:08;;;;;;;16.13;5.22;;;18.70;92.90;;;;;;10516938;28;20146;-57
2023/12/13 21:36:11;;;;;;;15.95;7.65;;;18.60;92.90;;;;;;10515817;28;20073;-55
2023/12/13 21:41:19;;;;;;;10.15;6.10;;;18.40;92.30;;;;;;10512577;28;20098;-54
2023/12/13 21:46:22;;;;;;;12.23;5.63;;;18.70;92.60;;;;;;10513905;28;20387;-55
2023/12/13 21:51:24;;;;;;;12.15;5.80;;;18.70;92.30;;;;;;10506038;28;20048;-56
2023/12/13 21:56:28;;;;;;;12.82;6.78;;;18.30;93.00;;;;;;10514312;28;20201;-57
2023/12/13 22:01:30;;;;;;;9.88;5.47;;;18.30;93.00;;;;;;10518524;28;20051;-55
2023/12/13 22:06:32;;;;;;;10.32;7.32;;;18.40;93.10;;;;;;10516752;28;20052;-56
2023/12/13 22:11:35;;;;;;;7.80;5.30;;;18.00;90.60;;;;;;10521920;28;20052;-55
2023/12/13 22:16:37;;;;;;;13.35;5.05;;;18.10;93.10;;;;;;10525522;28;20052;-57
2023/12/13 22:21:46;;;;;;;8.85;4.68;;;18.10;93.20;;;;;;10531093;28;21547;-56
2023/12/13 22:26:50;;;;;;;11.93;5.75;;;18.00;93.30;;;;;;10533028;28;20050;-53
2023/12/13 22:31:52;;;;;;;10.02;6.05;;;18.40;92.50;;;;;;10520093;28;20048;-55
2023/12/13 22:36:58;;;;;;;8.23;5.22;;;18.20;92.90;;;;;;10522291;28;20040;-55
2023/12/13 22:42:05;;;;;;;9.68;5.50;;;17.90;92.90;;;;;;10522308;28;20063;-55
2023/12/13 22:47:07;;;;;;;9.10;4.60;;;17.70;93.40;;;;;;10502321;28;20055;-56
2023/12/13 22:52:10;;;;;;;8.93;5.00;;;18.00;93.10;;;;;;10523776;28;20060;-52
2023/12/13 22:57:13;;;;;;;8.82;4.78;;;17.60;93.60;;;;;;10517387;28;20064;-57
2023/12/13 23:02:15;;;;;;;11.93;4.80;;;18.10;92.80;;;;;;10516697;28;20089;-57
2023/12/13 23:07:17;;;;;;;;;;;18.10;92.80;;;;;;10520176;28;20132;-57
2023/12/13 23:12:20;;;;;;;8.57;3.83;;;18.00;92.80;;;;;;10522884;28;19927;-57
2023/12/13 23:17:22;;;;;;;8.43;4.38;;;17.10;94.00;;;;;;10517226;28;20082;-54
2023/12/13 23:22:24;;;;;;;7.18;4.03;;;17.40;94.30;;;;;;10522537;28;20937;-56
2023/12/13 23:27:28;;;;;;;9.50;4.22;;;17.90;92.20;;;;;;10519628;28;20120;-56
2023/12/13 23:32:30;;;;;;;5.75;3.33;;;17.70;93.10;;;;;;10517783;28;20081;-58
2023/12/13 23:37:32;;;;;;;4.57;3.75;;;17.90;93.20;;;;;;10518566;28;20160;-57
2023/12/13 23:42:36;;;;;;;4.43;3.25;;;17.60;91.80;;;;;;10518519;28;23034;-53
2023/12/13 23:47:38;;;;;;;7.95;2.78;;;17.80;92.90;;;;;;10524203;28;20069;-55
2023/12/13 23:52:40;;;;;;;4.72;3.20;;;17.80;92.70;;;;;;10523021;28;20078;-58
2023/12/13 23:57:43;;;;;;;3.50;2.42;;;17.90;92.40;;;;;;10526105;28;20062;-55
